createdAt,value
2023-05-13T08:01:13.659Z,30.16
2023-05-13T08:02:13.703Z,30.16
2023-05-13T08:03:13.824Z,30.22
2023-05-13T08:04:13.957Z,30.25
2023-05-13T08:05:13.854Z,30.19
2023-05-13T08:06:13.816Z,30.20
2023-05-13T08:07:13.821Z,30.18
2023-05-13T08:08:13.895Z,30.16
2023-05-13T08:09:13.927Z,30.18
2023-05-13T08:10:13.987Z,30.13
2023-05-13T08:11:14.004Z,30.17
2023-05-13T08:12:14.009Z,30.13
2023-05-13T08:13:14.030Z,30.11
2023-05-13T08:14:14.056Z,30.13
2023-05-13T08:15:14.046Z,30.11
2023-05-13T08:16:14.081Z,30.04
2023-05-13T08:17:14.065Z,29.99
2023-05-13T08:18:14.059Z,30.03
2023-05-13T08:19:14.114Z,30.00
2023-05-13T08:20:14.079Z,30.00
2023-05-13T08:21:14.086Z,29.97
2023-05-13T08:22:14.167Z,29.93
2023-05-13T08:23:14.172Z,29.88
2023-05-13T08:24:14.213Z,29.89
2023-05-13T08:25:14.274Z,29.90
2023-05-13T08:26:14.328Z,29.89
2023-05-13T08:27:14.389Z,29.86
2023-05-13T08:28:14.423Z,29.89
2023-05-13T08:29:14.462Z,29.77
2023-05-13T08:30:14.542Z,29.86
2023-05-13T08:31:14.653Z,29.85
2023-05-13T08:32:14.775Z,29.86
2023-05-13T08:33:14.734Z,29.86
2023-05-13T08:34:14.786Z,29.82
2023-05-13T08:35:14.869Z,29.83
2023-05-13T08:36:14.902Z,29.83
2023-05-13T08:37:14.952Z,29.80
2023-05-13T08:38:15.034Z,29.78
2023-05-13T08:39:15.093Z,29.78
2023-05-13T08:40:15.148Z,29.78
2023-05-13T08:41:15.347Z,29.81
2023-05-13T08:42:15.256Z,29.76
2023-05-13T08:43:15.339Z,29.80
2023-05-13T08:44:15.376Z,29.74
2023-05-13T08:45:15.439Z,29.76
2023-05-13T08:46:15.538Z,29.72
2023-05-13T08:47:15.549Z,29.75
2023-05-13T08:48:15.701Z,29.71
2023-05-13T08:49:15.671Z,29.70
2023-05-13T08:50:15.720Z,29.70
2023-05-13T08:51:15.786Z,29.68
2023-05-13T08:52:15.824Z,29.71
2023-05-13T08:53:15.900Z,29.68
2023-05-13T08:54:15.927Z,29.67
2023-05-13T08:55:16.001Z,29.64
2023-05-13T08:56:16.049Z,29.64
2023-05-13T08:57:16.099Z,29.63
2023-05-13T08:58:16.126Z,29.66
2023-05-13T08:59:16.177Z,29.67
2023-05-13T09:00:16.246Z,29.66
2023-05-13T09:01:16.293Z,29.67
2023-05-13T09:02:16.321Z,29.66
2023-05-13T09:03:16.373Z,29.66
2023-05-13T09:04:16.384Z,29.62
2023-05-13T09:05:16.544Z,29.63
2023-05-13T09:06:16.510Z,29.62
2023-05-13T09:07:16.554Z,29.60
2023-05-13T09:08:16.626Z,29.66
2023-05-13T09:09:16.626Z,29.65
2023-05-13T09:10:16.708Z,29.66
2023-05-13T09:11:16.724Z,29.69
2023-05-13T09:12:16.768Z,29.63
2023-05-13T09:13:16.836Z,29.63
2023-05-13T09:14:16.831Z,29.63
2023-05-13T09:15:16.887Z,29.65
2023-05-13T09:16:17.050Z,29.63
2023-05-13T09:17:16.977Z,29.62
2023-05-13T09:18:18.854Z,29.63
2023-05-13T09:19:17.172Z,29.63
2023-05-13T09:20:17.132Z,29.68
2023-05-13T09:21:17.168Z,29.63
2023-05-13T09:22:17.186Z,29.56
2023-05-13T09:23:17.248Z,29.56
2023-05-13T09:24:17.252Z,29.58
2023-05-13T09:25:17.322Z,29.55
2023-05-13T09:26:17.342Z,29.58
2023-05-13T09:27:17.400Z,29.55
2023-05-13T09:28:17.460Z,29.59
2023-05-13T09:29:17.482Z,29.56
2023-05-13T09:30:17.509Z,29.56
2023-05-13T09:31:17.584Z,29.50
2023-05-13T09:32:17.578Z,29.53
2023-05-13T09:33:17.689Z,29.58
2023-05-13T09:34:17.668Z,29.53
2023-05-13T09:35:17.717Z,29.59
2023-05-13T09:36:17.710Z,29.55
2023-05-13T09:37:17.735Z,29.52
2023-05-13T09:38:17.801Z,29.57
2023-05-13T09:39:17.827Z,29.58
2023-05-13T09:40:17.837Z,29.51
2023-05-13T09:41:17.901Z,29.55
2023-05-13T09:42:17.913Z,29.57
2023-05-13T09:43:17.958Z,29.58
2023-05-13T09:44:17.998Z,29.52
2023-05-13T09:45:18.029Z,29.57
2023-05-13T09:46:18.112Z,29.55
2023-05-13T09:47:18.173Z,29.55
2023-05-13T09:48:18.094Z,29.53
2023-05-13T09:49:18.094Z,29.55
2023-05-13T09:50:18.155Z,29.52
2023-05-13T09:51:18.169Z,29.55
2023-05-13T09:52:18.205Z,29.54
2023-05-13T09:53:18.223Z,29.58
2023-05-13T09:54:18.262Z,29.55
2023-05-13T09:55:18.278Z,29.57
2023-05-13T09:56:18.273Z,29.57
2023-05-13T09:57:18.331Z,29.53
2023-05-13T09:58:18.357Z,29.57
2023-05-13T09:59:18.440Z,29.53
2023-05-13T10:00:31.609Z,29.54
2023-05-13T10:01:19.625Z,29.59
2023-05-13T10:02:18.394Z,29.59
2023-05-13T10:03:18.364Z,29.53
2023-05-13T10:04:18.414Z,29.56
2023-05-13T10:05:18.365Z,29.55
2023-05-13T10:06:18.384Z,29.53
2023-05-13T10:07:18.339Z,29.55
2023-05-13T10:08:18.388Z,29.56
2023-05-13T10:09:18.367Z,29.54
2023-05-13T10:10:18.340Z,29.57
2023-05-13T10:11:18.348Z,29.57
2023-05-13T10:12:18.284Z,29.56
2023-05-13T10:13:18.307Z,29.53
2023-05-13T10:14:18.327Z,29.57
2023-05-13T10:15:18.286Z,29.54
2023-05-13T10:16:18.356Z,29.56
2023-05-13T10:17:18.287Z,29.57
2023-05-13T10:18:18.313Z,29.56
2023-05-13T10:19:18.481Z,29.54
2023-05-13T10:20:18.371Z,29.57
2023-05-13T10:21:18.334Z,29.57
2023-05-13T10:22:18.357Z,29.60
2023-05-13T10:23:18.396Z,29.63
2023-05-13T10:24:18.397Z,29.52
2023-05-13T10:25:18.394Z,29.59
2023-05-13T10:26:18.444Z,29.62
2023-05-13T10:27:18.448Z,29.62
2023-05-13T10:28:18.517Z,29.59
2023-05-13T10:29:18.508Z,29.56
2023-05-13T10:30:18.569Z,29.59
2023-05-13T10:31:18.581Z,29.57
2023-05-13T10:32:18.609Z,29.62
2023-05-13T10:33:18.669Z,29.58
2023-05-13T10:34:18.644Z,29.62
2023-05-13T10:35:18.628Z,29.65
2023-05-13T10:36:18.686Z,29.58
2023-05-13T10:37:18.671Z,29.59
2023-05-13T10:38:18.696Z,29.60
2023-05-13T10:39:18.714Z,29.66
2023-05-13T10:40:18.784Z,29.64
2023-05-13T10:41:18.857Z,29.66
2023-05-13T10:42:18.750Z,29.62
2023-05-13T10:43:18.776Z,29.65
2023-05-13T10:44:18.819Z,29.65
2023-05-13T10:45:18.792Z,29.62
2023-05-13T10:46:18.897Z,29.71
2023-05-13T10:47:18.816Z,29.64
2023-05-13T10:48:18.934Z,29.65
2023-05-13T10:49:18.855Z,29.64
2023-05-13T10:50:18.958Z,29.70
2023-05-13T10:51:18.873Z,29.64
2023-05-13T10:52:18.867Z,29.61
2023-05-13T10:53:18.922Z,29.64
2023-05-13T10:54:18.909Z,29.66
2023-05-13T10:55:18.894Z,29.64
2023-05-13T10:56:18.946Z,29.69
2023-05-13T10:57:18.913Z,29.68
2023-05-13T10:58:18.948Z,29.61
2023-05-13T10:59:18.930Z,29.66
2023-05-13T11:00:19.151Z,29.68
2023-05-13T11:01:19.057Z,29.70
2023-05-13T11:02:18.978Z,29.69
2023-05-13T11:03:19.159Z,29.65
2023-05-13T11:04:18.986Z,29.69
2023-05-13T11:05:18.973Z,29.61
2023-05-13T11:06:19.013Z,29.65
2023-05-13T11:07:19.015Z,29.61
2023-05-13T11:08:18.990Z,29.62
2023-05-13T11:09:19.018Z,29.64
2023-05-13T11:10:19.102Z,29.61
2023-05-13T11:11:19.029Z,29.64
2023-05-13T11:12:19.041Z,29.62
2023-05-13T11:13:19.070Z,29.62
2023-05-13T11:14:19.071Z,29.59
2023-05-13T11:15:19.059Z,29.61
2023-05-13T11:16:19.128Z,29.59
2023-05-13T11:17:19.071Z,29.71
2023-05-13T11:18:19.106Z,29.65
2023-05-13T11:19:19.096Z,29.65
2023-05-13T11:20:19.223Z,29.58
2023-05-13T11:21:19.094Z,29.58
2023-05-13T11:22:19.116Z,29.61
2023-05-13T11:23:19.091Z,29.67
2023-05-13T11:24:19.124Z,29.71
2023-05-13T11:25:19.144Z,29.71
2023-05-13T11:26:19.159Z,29.64
2023-05-13T11:27:19.159Z,29.62
2023-05-13T11:28:19.128Z,29.63
2023-05-13T11:29:19.132Z,29.67
2023-05-13T11:30:19.276Z,29.65
2023-05-13T11:31:19.175Z,29.71
2023-05-13T11:32:19.163Z,29.63
2023-05-13T11:33:19.180Z,29.64
2023-05-13T11:34:19.183Z,29.66
2023-05-13T11:35:19.175Z,29.63
2023-05-13T11:36:19.185Z,29.65
2023-05-13T11:37:19.218Z,29.65
2023-05-13T11:38:19.223Z,29.63
2023-05-13T11:39:19.231Z,29.66
2023-05-13T11:40:19.265Z,29.63
2023-05-13T11:41:19.234Z,29.64
2023-05-13T11:42:19.213Z,29.63
2023-05-13T11:43:19.213Z,29.65
2023-05-13T11:44:19.233Z,29.63
2023-05-13T11:45:19.243Z,29.60
2023-05-13T11:46:19.292Z,29.63
2023-05-13T11:47:19.217Z,29.64
2023-05-13T11:48:19.272Z,29.60
2023-05-13T11:49:19.218Z,29.64
2023-05-13T11:50:19.238Z,29.59
2023-05-13T11:51:19.258Z,29.60
2023-05-13T11:52:19.248Z,29.61
2023-05-13T11:53:19.290Z,29.60
2023-05-13T11:54:19.238Z,29.57
2023-05-13T11:55:19.344Z,29.59
2023-05-13T11:56:19.264Z,29.57
2023-05-13T11:57:19.280Z,29.57
2023-05-13T11:58:19.282Z,29.62
2023-05-13T11:59:19.289Z,29.62
2023-05-13T12:00:19.269Z,29.61
2023-05-13T12:01:19.277Z,29.60
2023-05-13T12:02:19.365Z,29.63
2023-05-13T12:03:19.333Z,29.59
2023-05-13T12:04:19.319Z,29.65
2023-05-13T12:05:19.371Z,29.62
2023-05-13T12:06:19.284Z,29.66
2023-05-13T12:07:19.267Z,29.65
2023-05-13T12:08:19.304Z,29.68
2023-05-13T12:09:19.333Z,29.62
2023-05-13T12:10:19.325Z,29.62
2023-05-13T12:11:19.297Z,29.66
2023-05-13T12:12:19.327Z,29.65
2023-05-13T12:13:19.321Z,29.63
2023-05-13T12:14:19.283Z,29.62
2023-05-13T12:15:19.324Z,29.66
2023-05-13T12:16:19.307Z,29.66
2023-05-13T12:17:19.329Z,29.66
2023-05-13T12:18:19.307Z,29.62
2023-05-13T12:19:19.336Z,29.66
2023-05-13T12:20:19.309Z,29.65
2023-05-13T12:21:19.306Z,29.66
2023-05-13T12:22:19.331Z,29.68
2023-05-13T12:23:19.319Z,29.68
2023-05-13T12:24:19.330Z,29.64
2023-05-13T12:25:19.498Z,29.70
2023-05-13T12:26:19.342Z,29.62
2023-05-13T12:27:19.334Z,29.62
2023-05-13T12:28:19.357Z,29.66
2023-05-13T12:29:19.367Z,29.59
2023-05-13T12:30:19.344Z,29.62
2023-05-13T12:31:19.434Z,29.59
2023-05-13T12:32:19.372Z,29.62
2023-05-13T12:33:19.411Z,29.61
2023-05-13T12:34:19.345Z,29.64
2023-05-13T12:35:19.412Z,29.59
2023-05-13T12:36:19.402Z,29.62
2023-05-13T12:37:19.363Z,29.62
2023-05-13T12:38:19.403Z,29.64
2023-05-13T12:39:19.381Z,29.62
2023-05-13T12:40:19.375Z,29.62
2023-05-13T12:41:19.390Z,29.65
2023-05-13T12:42:19.406Z,29.64
2023-05-13T12:43:19.426Z,29.65
2023-05-13T12:44:19.425Z,29.64
2023-05-13T12:45:19.555Z,29.63
2023-05-13T12:46:19.510Z,29.60
2023-05-13T12:47:19.470Z,29.63
2023-05-13T12:48:19.439Z,29.67
2023-05-13T12:49:19.484Z,29.64
2023-05-13T12:50:19.452Z,29.60
2023-05-13T12:51:19.460Z,29.66
2023-05-13T12:52:19.461Z,29.61
2023-05-13T12:53:19.489Z,29.61
2023-05-13T12:54:19.493Z,29.61
2023-05-13T12:55:19.608Z,29.59
2023-05-13T12:56:19.494Z,29.64
2023-05-13T12:57:19.488Z,29.60
2023-05-13T12:58:19.514Z,29.56
2023-05-13T12:59:19.504Z,29.55
2023-05-13T13:00:19.500Z,29.54
